Terminal Aerodrome Forecast
Issued by NWS Pittsburgh, PA

Current Version | Previous Version | Graphics & Text | Print | Product List | Glossary On
Versions: 1 2 3 4 5 6 7 8 9 10 11 12 13 14 15 16 17 18 19 20 21 22 23 24 25 26 27 28 29
355
FTUS41 KPBZ 222154 AAB
TAFPIT
TAF AMD
KPIT 222154Z 2222/2324 21006KT P6SM BKN040
     FM230300 20005KT P6SM BKN025
     FM230600 20003KT P6SM OVC012
     FM230800 20004KT 4SM BR OVC008
     FM231700 23007KT P6SM VCSH BKN012=

USA.gov is the U.S. government's official web portal to all federal, state and local government web resources and services.